sensor_id;sensor_type;location;lat;lon;timestamp;pressure;altitude;pressure_sealevel;temperature;humidity
51239;BME280;38154;47.548;18.828;2023-02-18T00:02:14;99039.38;;;10.22;100.00
51239;BME280;38154;47.548;18.828;2023-02-18T00:04:40;99035.06;;;10.23;100.00
51239;BME280;38154;47.548;18.828;2023-02-18T00:07:06;99036.94;;;10.36;100.00
51239;BME280;38154;47.548;18.828;2023-02-18T00:09:32;99033.50;;;10.43;100.00
51239;BME280;38154;47.548;18.828;2023-02-18T00:11:58;99026.53;;;10.45;100.00
51239;BME280;38154;47.548;18.828;2023-02-18T00:14:24;99018.69;;;10.42;100.00
51239;BME280;38154;47.548;18.828;2023-02-18T00:16:49;99013.50;;;10.42;100.00
51239;BME280;38154;47.548;18.828;2023-02-18T00:19:18;99007.44;;;10.46;100.00
51239;BME280;38154;47.548;18.828;2023-02-18T00:21:44;99017.00;;;10.44;100.00
51239;BME280;38154;47.548;18.828;2023-02-18T00:24:12;99003.13;;;10.53;100.00
51239;BME280;38154;47.548;18.828;2023-02-18T00:26:40;99004.91;;;10.63;100.00
51239;BME280;38154;47.548;18.828;2023-02-18T00:29:06;98999.62;;;10.54;100.00
51239;BME280;38154;47.548;18.828;2023-02-18T00:31:34;99006.59;;;10.53;100.00
51239;BME280;38154;47.548;18.828;2023-02-18T00:34:01;98995.28;;;10.50;100.00
51239;BME280;38154;47.548;18.828;2023-02-18T00:36:27;98997.88;;;10.48;100.00
51239;BME280;38154;47.548;18.828;2023-02-18T00:38:56;98995.28;;;10.47;100.00
51239;BME280;38154;47.548;18.828;2023-02-18T00:41:24;98986.59;;;10.54;100.00
51239;BME280;38154;47.548;18.828;2023-02-18T00:43:50;98984.03;;;10.58;100.00
51239;BME280;38154;47.548;18.828;2023-02-18T00:46:17;98988.41;;;10.66;100.00
51239;BME280;38154;47.548;18.828;2023-02-18T00:48:43;98996.22;;;10.67;100.00
51239;BME280;38154;47.548;18.828;2023-02-18T00:51:10;98995.44;;;10.77;100.00
51239;BME280;38154;47.548;18.828;2023-02-18T00:53:37;98995.44;;;10.82;100.00
51239;BME280;38154;47.548;18.828;2023-02-18T00:56:04;98979.75;;;10.81;100.00
51239;BME280;38154;47.548;18.828;2023-02-18T00:58:30;98980.59;;;10.72;100.00
51239;BME280;38154;47.548;18.828;2023-02-18T01:00:56;98977.16;;;10.79;100.00
51239;BME280;38154;47.548;18.828;2023-02-18T01:03:22;98975.47;;;10.84;100.00
51239;BME280;38154;47.548;18.828;2023-02-18T01:05:48;98972.84;;;10.83;100.00
51239;BME280;38154;47.548;18.828;2023-02-18T01:08:16;98972.84;;;10.83;100.00
51239;BME280;38154;47.548;18.828;2023-02-18T01:10:43;98960.62;;;10.75;100.00
51239;BME280;38154;47.548;18.828;2023-02-18T01:13:11;98965.88;;;10.92;100.00
51239;BME280;38154;47.548;18.828;2023-02-18T01:15:38;98965.00;;;10.86;100.00
51239;BME280;38154;47.548;18.828;2023-02-18T01:18:04;98963.28;;;10.94;100.00
51239;BME280;38154;47.548;18.828;2023-02-18T01:20:35;98968.50;;;10.95;100.00
51239;BME280;38154;47.548;18.828;2023-02-18T01:23:03;98958.09;;;11.00;100.00
51239;BME280;38154;47.548;18.828;2023-02-18T01:25:30;98957.25;;;11.01;100.00
51239;BME280;38154;47.548;18.828;2023-02-18T01:27:56;98954.63;;;11.06;100.00
51239;BME280;38154;47.548;18.828;2023-02-18T01:30:22;98958.13;;;11.17;100.00
51239;BME280;38154;47.548;18.828;2023-02-18T01:32:48;98942.50;;;11.23;100.00
51239;BME280;38154;47.548;18.828;2023-02-18T01:35:15;98953.81;;;11.28;100.00
51239;BME280;38154;47.548;18.828;2023-02-18T01:37:42;98939.88;;;11.32;100.00
51239;BME280;38154;47.548;18.828;2023-02-18T01:40:11;98951.22;;;11.33;100.00
51239;BME280;38154;47.548;18.828;2023-02-18T01:42:38;98941.59;;;11.27;100.00
51239;BME280;38154;47.548;18.828;2023-02-18T01:48:22;98935.53;;;11.38;100.00
51239;BME280;38154;47.548;18.828;2023-02-18T01:51:00;98923.34;;;11.37;100.00
51239;BME280;38154;47.548;18.828;2023-02-18T01:53:36;98932.06;;;11.45;100.00
51239;BME280;38154;47.548;18.828;2023-02-18T01:56:08;98923.34;;;11.52;100.00
51239;BME280;38154;47.548;18.828;2023-02-18T01:58:36;98916.38;;;11.52;100.00
51239;BME280;38154;47.548;18.828;2023-02-18T02:01:03;98917.28;;;11.55;100.00
51239;BME280;38154;47.548;18.828;2023-02-18T02:03:29;98906.81;;;11.61;100.00
51239;BME280;38154;47.548;18.828;2023-02-18T02:05:54;98899.84;;;11.61;100.00
51239;BME280;38154;47.548;18.828;2023-02-18T02:08:20;98912.03;;;11.56;100.00
51239;BME280;38154;47.548;18.828;2023-02-18T02:11:04;98903.31;;;11.57;100.00
51239;BME280;38154;47.548;18.828;2023-02-18T02:16:30;98906.81;;;11.68;100.00
51239;BME280;38154;47.548;18.828;2023-02-18T02:19:39;98903.31;;;11.71;100.00
51239;BME280;38154;47.548;18.828;2023-02-18T02:25:30;98901.59;;;11.70;100.00
51239;BME280;38154;47.548;18.828;2023-02-18T02:36:13;98912.03;;;11.70;100.00
51239;BME280;38154;47.548;18.828;2023-02-18T02:41:58;98918.13;;;11.78;100.00
51239;BME280;38154;47.548;18.828;2023-02-18T02:47:07;98915.50;;;11.74;100.00
51239;BME280;38154;47.548;18.828;2023-02-18T02:49:59;98933.78;;;11.72;100.00
51239;BME280;38154;47.548;18.828;2023-02-18T02:52:27;98925.97;;;11.70;100.00
51239;BME280;38154;47.548;18.828;2023-02-18T02:54:55;98924.22;;;11.63;100.00
51239;BME280;38154;47.548;18.828;2023-02-18T02:59:51;98914.62;;;11.61;100.00
51239;BME280;38154;47.548;18.828;2023-02-18T03:05:14;98914.62;;;11.58;100.00
51239;BME280;38154;47.548;18.828;2023-02-18T03:11:03;98907.69;;;11.60;100.00
51239;BME280;38154;47.548;18.828;2023-02-18T03:18:47;98941.66;;;11.58;100.00
51239;BME280;38154;47.548;18.828;2023-02-18T03:24:31;98933.78;;;11.50;100.00
51239;BME280;38154;47.548;18.828;2023-02-18T03:29:39;98933.81;;;11.54;100.00
51239;BME280;38154;47.548;18.828;2023-02-18T03:32:08;98940.78;;;11.55;100.00
51239;BME280;38154;47.548;18.828;2023-02-18T03:34:43;98932.03;;;11.49;100.00
51239;BME280;38154;47.548;18.828;2023-02-18T03:37:11;98933.81;;;11.38;100.00
51239;BME280;38154;47.548;18.828;2023-02-18T03:39:41;98951.19;;;11.36;100.00
51239;BME280;38154;47.548;18.828;2023-02-18T03:42:09;98949.44;;;11.26;100.00
51239;BME280;38154;47.548;18.828;2023-02-18T03:44:35;98952.91;;;11.19;100.00
51239;BME280;38154;47.548;18.828;2023-02-18T03:47:01;98952.91;;;11.20;100.00
51239;BME280;38154;47.548;18.828;2023-02-18T03:49:27;98954.66;;;11.20;100.00
51239;BME280;38154;47.548;18.828;2023-02-18T03:51:53;98959.91;;;11.23;100.00
51239;BME280;38154;47.548;18.828;2023-02-18T03:54:19;98961.62;;;11.25;100.00
51239;BME280;38154;47.548;18.828;2023-02-18T03:56:45;98959.00;;;11.25;100.00
51239;BME280;38154;47.548;18.828;2023-02-18T03:59:12;98949.47;;;11.23;100.00
51239;BME280;38154;47.548;18.828;2023-02-18T04:01:38;98952.06;;;11.29;100.00
51239;BME280;38154;47.548;18.828;2023-02-18T04:04:04;98954.66;;;11.20;100.00
51239;BME280;38154;47.548;18.828;2023-02-18T04:06:30;98959.91;;;11.21;100.00
51239;BME280;38154;47.548;18.828;2023-02-18T04:08:56;98969.44;;;11.21;100.00
51239;BME280;38154;47.548;18.828;2023-02-18T04:11:22;98978.13;;;11.24;100.00
51239;BME280;38154;47.548;18.828;2023-02-18T04:13:48;98965.97;;;11.22;100.00
51239;BME280;38154;47.548;18.828;2023-02-18T04:16:14;98959.88;;;11.26;100.00
51239;BME280;38154;47.548;18.828;2023-02-18T04:18:40;98969.44;;;11.22;100.00
51239;BME280;38154;47.548;18.828;2023-02-18T04:21:06;98971.16;;;11.12;100.00
51239;BME280;38154;47.548;18.828;2023-02-18T04:23:32;98959.84;;;11.03;100.00
51239;BME280;38154;47.548;18.828;2023-02-18T04:25:58;98978.09;;;11.06;100.00
51239;BME280;38154;47.548;18.828;2023-02-18T04:28:23;98970.28;;;11.06;100.00
51239;BME280;38154;47.548;18.828;2023-02-18T04:30:49;98973.78;;;11.09;100.00
51239;BME280;38154;47.548;18.828;2023-02-18T04:33:15;98965.94;;;11.12;100.00
51239;BME280;38154;47.548;18.828;2023-02-18T04:35:41;98978.09;;;11.07;100.00
51239;BME280;38154;47.548;18.828;2023-02-18T04:38:09;98979.00;;;11.09;100.00
51239;BME280;38154;47.548;18.828;2023-02-18T04:40:36;98980.72;;;11.09;100.00
51239;BME280;38154;47.548;18.828;2023-02-18T04:43:02;98980.72;;;11.09;100.00
51239;BME280;38154;47.548;18.828;2023-02-18T04:45:28;98982.47;;;11.04;100.00
51239;BME280;38154;47.548;18.828;2023-02-18T04:47:54;98995.50;;;11.07;100.00
51239;BME280;38154;47.548;18.828;2023-02-18T04:50:20;98990.28;;;11.07;100.00
51239;BME280;38154;47.548;18.828;2023-02-18T04:52:46;98993.78;;;11.09;100.00
51239;BME280;38154;47.548;18.828;2023-02-18T04:55:12;99002.50;;;11.08;100.00
51239;BME280;38154;47.548;18.828;2023-02-18T04:57:38;98997.28;;;11.08;100.00
51239;BME280;38154;47.548;18.828;2023-02-18T05:00:06;99012.06;;;11.12;100.00
51239;BME280;38154;47.548;18.828;2023-02-18T05:02:33;99009.41;;;11.06;100.00
51239;BME280;38154;47.548;18.828;2023-02-18T05:04:59;99007.66;;;11.00;100.00
51239;BME280;38154;47.548;18.828;2023-02-18T05:07:24;99011.97;;;10.90;100.00
51239;BME280;38154;47.548;18.828;2023-02-18T05:09:50;99012.84;;;10.83;100.00
51239;BME280;38154;47.548;18.828;2023-02-18T05:12:16;99025.84;;;10.79;100.00
51239;BME280;38154;47.548;18.828;2023-02-18T05:14:42;99027.53;;;10.69;100.00
51239;BME280;38154;47.548;18.828;2023-02-18T05:17:08;99022.31;;;10.69;100.00
51239;BME280;38154;47.548;18.828;2023-02-18T05:19:34;99021.41;;;10.56;100.00
51239;BME280;38154;47.548;18.828;2023-02-18T05:22:00;99025.69;;;10.46;100.00
51239;BME280;38154;47.548;18.828;2023-02-18T05:24:26;99030.81;;;10.35;100.00
51239;BME280;38154;47.548;18.828;2023-02-18T05:26:52;99030.69;;;10.18;100.00
51239;BME280;38154;47.548;18.828;2023-02-18T05:29:17;99028.97;;;10.19;100.00
51239;BME280;38154;47.548;18.828;2023-02-18T05:31:43;99031.59;;;10.27;100.00
51239;BME280;38154;47.548;18.828;2023-02-18T05:34:09;99033.34;;;10.23;100.00
51239;BME280;38154;47.548;18.828;2023-02-18T05:36:35;99049.81;;;10.22;100.00
51239;BME280;38154;47.548;18.828;2023-02-18T05:39:01;99045.50;;;10.24;100.00
51239;BME280;38154;47.548;18.828;2023-02-18T05:41:27;99060.28;;;10.28;100.00
51239;BME280;38154;47.548;18.828;2023-02-18T05:43:53;99059.41;;;10.25;100.00
51239;BME280;38154;47.548;18.828;2023-02-18T05:46:37;99057.66;;;10.27;100.00
51239;BME280;38154;47.548;18.828;2023-02-18T05:49:03;99077.69;;;10.31;100.00
51239;BME280;38154;47.548;18.828;2023-02-18T05:51:29;99081.28;;;10.44;100.00
51239;BME280;38154;47.548;18.828;2023-02-18T05:53:55;99084.78;;;10.46;100.00
51239;BME280;38154;47.548;18.828;2023-02-18T05:56:21;99070.84;;;10.39;100.00
51239;BME280;38154;47.548;18.828;2023-02-18T05:58:47;99086.47;;;10.37;100.00
51239;BME280;38154;47.548;18.828;2023-02-18T06:01:13;99082.06;;;10.32;100.00
51239;BME280;38154;47.548;18.828;2023-02-18T06:03:39;99085.56;;;10.35;100.00
51239;BME280;38154;47.548;18.828;2023-02-18T06:06:05;99076.94;;;10.41;100.00
51239;BME280;38154;47.548;18.828;2023-02-18T06:08:31;99080.28;;;10.28;100.00
51239;BME280;38154;47.548;18.828;2023-02-18T06:10:57;99085.47;;;10.25;100.00
51239;BME280;38154;47.548;18.828;2023-02-18T06:13:23;99089.72;;;10.13;100.00
51239;BME280;38154;47.548;18.828;2023-02-18T06:15:50;99092.34;;;10.16;100.00
51239;BME280;38154;47.548;18.828;2023-02-18T06:18:16;99090.56;;;10.11;100.00
51239;BME280;38154;47.548;18.828;2023-02-18T06:20:43;99094.84;;;10.02;100.00
51239;BME280;38154;47.548;18.828;2023-02-18T06:23:09;99107.00;;;10.05;100.00
51239;BME280;38154;47.548;18.828;2023-02-18T06:25:34;99100.94;;;10.06;100.00
51239;BME280;38154;47.548;18.828;2023-02-18T06:28:00;99093.03;;;9.94;100.00
51239;BME280;38154;47.548;18.828;2023-02-18T06:30:26;99104.25;;;9.88;100.00
51239;BME280;38154;47.548;18.828;2023-02-18T06:32:52;99115.44;;;9.76;100.00
51239;BME280;38154;47.548;18.828;2023-02-18T06:35:18;99104.06;;;9.70;100.00
51239;BME280;38154;47.548;18.828;2023-02-18T06:37:44;99120.56;;;9.69;100.00
51239;BME280;38154;47.548;18.828;2023-02-18T06:40:10;99111.94;;;9.73;100.00
51239;BME280;38154;47.548;18.828;2023-02-18T06:42:36;99117.06;;;9.66;100.00
51239;BME280;38154;47.548;18.828;2023-02-18T06:45:02;99126.66;;;9.71;100.00
51239;BME280;38154;47.548;18.828;2023-02-18T06:47:28;99130.16;;;9.73;100.00
51239;BME280;38154;47.548;18.828;2023-02-18T06:49:54;99136.25;;;9.76;100.00
51239;BME280;38154;47.548;18.828;2023-02-18T06:52:20;99131.87;;;9.71;100.00
51239;BME280;38154;47.548;18.828;2023-02-18T06:54:46;99137.16;;;9.80;100.00
51239;BME280;38154;47.548;18.828;2023-02-18T06:57:12;99141.59;;;9.86;100.00
51239;BME280;38154;47.548;18.828;2023-02-18T06:59:37;99142.34;;;9.78;100.00
51239;BME280;38154;47.548;18.828;2023-02-18T07:02:03;99144.06;;;9.75;100.00
51239;BME280;38154;47.548;18.828;2023-02-18T07:04:29;99147.66;;;9.88;100.00
51239;BME280;38154;47.548;18.828;2023-02-18T07:06:55;99145.13;;;9.92;100.00
51239;BME280;38154;47.548;18.828;2023-02-18T07:09:21;99138.13;;;9.90;100.00
51239;BME280;38154;47.548;18.828;2023-02-18T07:11:47;99142.50;;;9.95;100.00
51239;BME280;38154;47.548;18.828;2023-02-18T07:14:13;99153.00;;;10.00;100.00
51239;BME280;38154;47.548;18.828;2023-02-18T07:16:39;99135.69;;;10.07;100.00
51239;BME280;38154;47.548;18.828;2023-02-18T07:19:05;99139.13;;;10.01;100.00
51239;BME280;38154;47.548;18.828;2023-02-18T07:21:30;99136.53;;;10.04;100.00
51239;BME280;38154;47.548;18.828;2023-02-18T07:23:56;99123.69;;;10.23;100.00
51239;BME280;38154;47.548;18.828;2023-02-18T07:26:22;99124.50;;;10.20;100.00
51239;BME280;38154;47.548;18.828;2023-02-18T07:28:48;99126.16;;;10.10;100.00
51239;BME280;38154;47.548;18.828;2023-02-18T07:31:14;99121.91;;;10.20;100.00
51239;BME280;38154;47.548;18.828;2023-02-18T07:33:40;99131.63;;;10.35;100.00
51239;BME280;38154;47.548;18.828;2023-02-18T07:36:06;99115.97;;;10.35;100.00
51239;BME280;38154;47.548;18.828;2023-02-18T07:38:32;99116.94;;;10.48;100.00
51239;BME280;38154;47.548;18.828;2023-02-18T07:40:58;99122.28;;;10.66;100.00
51239;BME280;38154;47.548;18.828;2023-02-18T07:43:24;99120.56;;;10.68;100.00
51239;BME280;38154;47.548;18.828;2023-02-18T07:45:50;99118.81;;;10.67;100.00
51239;BME280;38154;47.548;18.828;2023-02-18T07:48:16;99113.66;;;10.76;100.00
51239;BME280;38154;47.548;18.828;2023-02-18T07:50:44;99111.94;;;10.80;100.00
51239;BME280;38154;47.548;18.828;2023-02-18T07:53:12;99112.84;;;10.87;100.00
51239;BME280;38154;47.548;18.828;2023-02-18T07:55:38;99106.75;;;10.85;100.00
51239;BME280;38154;47.548;18.828;2023-02-18T07:58:25;99111.97;;;10.86;100.00
51239;BME280;38154;47.548;18.828;2023-02-18T08:00:52;99112.88;;;10.90;100.00
51239;BME280;38154;47.548;18.828;2023-02-18T08:03:24;99111.09;;;10.86;100.00
51239;BME280;38154;47.548;18.828;2023-02-18T08:05:51;99111.13;;;10.93;100.00
51239;BME280;38154;47.548;18.828;2023-02-18T08:08:23;99112.06;;;11.11;100.00
51239;BME280;38154;47.548;18.828;2023-02-18T08:10:51;99131.25;;;11.18;100.00
51239;BME280;38154;47.548;18.828;2023-02-18T08:13:17;99117.37;;;11.25;100.00
51239;BME280;38154;47.548;18.828;2023-02-18T08:15:44;99118.28;;;11.35;100.00
51239;BME280;38154;47.548;18.828;2023-02-18T08:18:19;99119.16;;;11.37;100.00
51239;BME280;38154;47.548;18.828;2023-02-18T08:20:46;99126.13;;;11.41;100.00
51239;BME280;38154;47.548;18.828;2023-02-18T08:23:12;99123.53;;;11.44;100.00
51239;BME280;38154;47.548;18.828;2023-02-18T08:25:38;99125.28;;;11.46;100.00
51239;BME280;38154;47.548;18.828;2023-02-18T08:28:05;99128.75;;;11.44;100.00
51239;BME280;38154;47.548;18.828;2023-02-18T08:30:31;99140.09;;;11.49;100.00
51239;BME280;38154;47.548;18.828;2023-02-18T08:32:57;99134.88;;;11.52;100.00
51239;BME280;38154;47.548;18.828;2023-02-18T08:35:23;99127.91;;;11.45;100.00
51239;BME280;38154;47.548;18.828;2023-02-18T08:37:49;99126.13;;;11.41;100.00
51239;BME280;38154;47.548;18.828;2023-02-18T08:40:15;99125.31;;;11.48;100.00
51239;BME280;38154;47.548;18.828;2023-02-18T08:42:40;99116.59;;;11.50;100.00
51239;BME280;38154;47.548;18.828;2023-02-18T08:45:07;99127.94;;;11.59;100.00
51239;BME280;38154;47.548;18.828;2023-02-18T08:47:33;99127.06;;;11.57;100.00
51239;BME280;38154;47.548;18.828;2023-02-18T08:49:59;99124.47;;;11.61;100.00
51239;BME280;38154;47.548;18.828;2023-02-18T08:52:25;99131.47;;;11.85;100.00
51239;BME280;38154;47.548;18.828;2023-02-18T08:54:51;99132.34;;;11.87;100.00
51239;BME280;38154;47.548;18.828;2023-02-18T08:57:17;99139.34;;;11.90;100.00
51239;BME280;38154;47.548;18.828;2023-02-18T08:59:42;99127.09;;;11.74;100.00
51239;BME280;38154;47.548;18.828;2023-02-18T09:02:11;99127.09;;;11.74;100.00
51239;BME280;38154;47.548;18.828;2023-02-18T09:04:37;99120.12;;;11.69;100.00
51239;BME280;38154;47.548;18.828;2023-02-18T09:07:03;99113.12;;;11.62;100.00
51239;BME280;38154;47.548;18.828;2023-02-18T09:09:29;99127.06;;;11.55;100.00
51239;BME280;38154;47.548;18.828;2023-02-18T09:11:55;99122.72;;;11.57;100.00
51239;BME280;38154;47.548;18.828;2023-02-18T09:14:22;99110.53;;;11.62;100.00
51239;BME280;38154;47.548;18.828;2023-02-18T09:16:47;99122.75;;;11.65;100.00
51239;BME280;38154;47.548;18.828;2023-02-18T09:19:16;99112.31;;;11.88;100.00
51239;BME280;38154;47.548;18.828;2023-02-18T09:21:42;99108.00;;;11.99;100.00
51239;BME280;38154;47.548;18.828;2023-02-18T09:24:08;99115.84;;;12.02;100.00
51239;BME280;38154;47.548;18.828;2023-02-18T09:26:35;99106.28;;;12.26;100.00
51239;BME280;38154;47.548;18.828;2023-02-18T09:29:01;99118.47;;;12.50;100.00
51239;BME280;38154;47.548;18.828;2023-02-18T09:31:28;99126.31;;;12.59;100.00
51239;BME280;38154;47.548;18.828;2023-02-18T09:33:56;99120.19;;;12.67;100.00
51239;BME280;38154;47.548;18.828;2023-02-18T09:36:23;99121.94;;;12.75;100.00
51239;BME280;38154;47.548;18.828;2023-02-18T09:38:49;99130.63;;;12.84;100.00
51239;BME280;38154;47.548;18.828;2023-02-18T09:41:22;99129.75;;;12.91;100.00
51239;BME280;38154;47.548;18.828;2023-02-18T09:43:54;99121.00;;;12.93;100.00
51239;BME280;38154;47.548;18.828;2023-02-18T09:46:28;99135.84;;;13.01;100.00
51239;BME280;38154;47.548;18.828;2023-02-18T09:48:56;99138.44;;;12.99;100.00
51239;BME280;38154;47.548;18.828;2023-02-18T09:51:22;99131.47;;;12.98;100.00
51239;BME280;38154;47.548;18.828;2023-02-18T09:53:48;99133.25;;;12.82;100.00
51239;BME280;38154;47.548;18.828;2023-02-18T09:56:21;99130.66;;;12.73;100.00
51239;BME280;38154;47.548;18.828;2023-02-18T09:58:48;99133.28;;;12.53;100.00
51239;BME280;38154;47.548;18.828;2023-02-18T10:01:27;99125.44;;;12.57;100.00
51239;BME280;38154;47.548;18.828;2023-02-18T10:03:57;99108.84;;;12.61;100.00
51239;BME280;38154;47.548;18.828;2023-02-18T10:06:32;99117.59;;;12.59;100.00
51239;BME280;38154;47.548;18.828;2023-02-18T10:09:03;99127.16;;;12.61;100.00
51239;BME280;38154;47.548;18.828;2023-02-18T10:11:40;99120.22;;;12.56;100.00
51239;BME280;38154;47.548;18.828;2023-02-18T10:14:11;99119.31;;;12.60;100.00
51239;BME280;38154;47.548;18.828;2023-02-18T10:16:38;99111.47;;;12.75;100.00
51239;BME280;38154;47.548;18.828;2023-02-18T10:19:27;99116.69;;;12.77;100.00
51239;BME280;38154;47.548;18.828;2023-02-18T10:21:54;99119.28;;;12.88;100.00
51239;BME280;38154;47.548;18.828;2023-02-18T10:26:56;99121.00;;;12.96;100.00
51239;BME280;38154;47.548;18.828;2023-02-18T10:29:24;99119.22;;;13.14;100.00
51239;BME280;38154;47.548;18.828;2023-02-18T10:31:58;99114.78;;;13.25;100.00
51239;BME280;38154;47.548;18.828;2023-02-18T10:34:38;99106.06;;;13.31;100.00
51239;BME280;38154;47.548;18.828;2023-02-18T10:42:39;99093.72;;;13.56;100.00
51239;BME280;38154;47.548;18.828;2023-02-18T10:50:43;99082.03;;;14.06;100.00
51239;BME280;38154;47.548;18.828;2023-02-18T10:53:15;99095.84;;;14.28;99.18
51239;BME280;38154;47.548;18.828;2023-02-18T10:55:45;99089.78;;;14.22;99.16
51239;BME280;38154;47.548;18.828;2023-02-18T10:58:32;99080.28;;;14.02;99.93
51239;BME280;38154;47.548;18.828;2023-02-18T11:01:14;99083.19;;;13.62;100.00
51239;BME280;38154;47.548;18.828;2023-02-18T11:03:43;99076.38;;;13.32;100.00
51239;BME280;38154;47.548;18.828;2023-02-18T11:06:33;99074.72;;;13.08;100.00
51239;BME280;38154;47.548;18.828;2023-02-18T11:09:03;99064.25;;;13.00;100.00
51239;BME280;38154;47.548;18.828;2023-02-18T11:11:33;99062.53;;;12.97;100.00
51239;BME280;38154;47.548;18.828;2023-02-18T11:14:04;99063.41;;;13.04;100.00
51239;BME280;38154;47.548;18.828;2023-02-18T11:16:41;99057.25;;;13.04;100.00
51239;BME280;38154;47.548;18.828;2023-02-18T11:22:06;99046.59;;;13.53;100.00
51239;BME280;38154;47.548;18.828;2023-02-18T11:24:37;99049.97;;;13.67;100.00
51239;BME280;38154;47.548;18.828;2023-02-18T11:27:10;99051.81;;;13.53;100.00
51239;BME280;38154;47.548;18.828;2023-02-18T11:29:38;99056.25;;;13.40;100.00
51239;BME280;38154;47.548;18.828;2023-02-18T11:32:10;99038.81;;;13.30;100.00
51239;BME280;38154;47.548;18.828;2023-02-18T11:34:40;99023.97;;;13.38;100.00
51239;BME280;38154;47.548;18.828;2023-02-18T11:37:11;99030.00;;;13.52;100.00
51239;BME280;38154;47.548;18.828;2023-02-18T11:39:43;99026.37;;;13.67;100.00
51239;BME280;38154;47.548;18.828;2023-02-18T11:42:13;99032.25;;;14.00;100.00
51239;BME280;38154;47.548;18.828;2023-02-18T11:44:47;99017.19;;;14.24;100.00
51239;BME280;38154;47.548;18.828;2023-02-18T11:49:42;99025.31;;;14.84;97.10
51239;BME280;38154;47.548;18.828;2023-02-18T11:54:34;99003.78;;;15.23;92.15
51239;BME280;38154;47.548;18.828;2023-02-18T11:57:01;99000.75;;;15.54;89.97
51239;BME280;38154;47.548;18.828;2023-02-18T11:59:31;99001.31;;;15.73;88.49
51239;BME280;38154;47.548;18.828;2023-02-18T12:04:54;98991.62;;;15.75;85.38
51239;BME280;38154;47.548;18.828;2023-02-18T12:07:29;98988.91;;;15.25;86.74
51239;BME280;38154;47.548;18.828;2023-02-18T12:10:00;98974.47;;;14.93;87.07
51239;BME280;38154;47.548;18.828;2023-02-18T12:12:30;98973.09;;;14.61;89.47
51239;BME280;38154;47.548;18.828;2023-02-18T12:14:58;98961.72;;;14.58;88.23
51239;BME280;38154;47.548;18.828;2023-02-18T12:28:41;98938.50;;;14.97;85.96
51239;BME280;38154;47.548;18.828;2023-02-18T12:31:17;98945.28;;;15.13;85.06
51239;BME280;38154;47.548;18.828;2023-02-18T12:39:09;98935.25;;;15.40;81.44
51239;BME280;38154;47.548;18.828;2023-02-18T12:56:17;98914.88;;;14.97;83.28
51239;BME280;38154;47.548;18.828;2023-02-18T13:01:14;98899.88;;;15.05;83.36
51239;BME280;38154;47.548;18.828;2023-02-18T13:12:47;98891.94;;;15.08;83.33
51239;BME280;38154;47.548;18.828;2023-02-18T13:18:19;98894.41;;;15.20;83.03
51239;BME280;38154;47.548;18.828;2023-02-18T13:20:53;98885.50;;;15.28;84.01
51239;BME280;38154;47.548;18.828;2023-02-18T13:23:23;98885.84;;;15.61;81.58
51239;BME280;38154;47.548;18.828;2023-02-18T13:25:55;98879.66;;;15.63;79.38
51239;BME280;38154;47.548;18.828;2023-02-18T13:28:31;98884.16;;;15.56;80.11
51239;BME280;38154;47.548;18.828;2023-02-18T13:33:55;98875.19;;;15.17;81.73
51239;BME280;38154;47.548;18.828;2023-02-18T13:39:21;98859.56;;;15.61;80.05
51239;BME280;38154;47.548;18.828;2023-02-18T13:41:49;98865.50;;;15.72;78.87
51239;BME280;38154;47.548;18.828;2023-02-18T13:46:52;98846.16;;;15.74;78.89
51239;BME280;38154;47.548;18.828;2023-02-18T13:49:30;98850.81;;;15.60;78.54
51239;BME280;38154;47.548;18.828;2023-02-18T13:51:58;98849.44;;;15.39;80.96
51239;BME280;38154;47.548;18.828;2023-02-18T13:54:43;98848.19;;;15.07;83.92
51239;BME280;38154;47.548;18.828;2023-02-18T13:57:19;98848.16;;;15.10;87.38
51239;BME280;38154;47.548;18.828;2023-02-18T13:59:49;98829.78;;;15.09;90.54
51239;BME280;38154;47.548;18.828;2023-02-18T14:02:29;98829.19;;;14.91;89.75
51239;BME280;38154;47.548;18.828;2023-02-18T14:04:56;98830.97;;;14.89;93.74
51239;BME280;38154;47.548;18.828;2023-02-18T14:07:49;98824.16;;;14.77;94.39
51239;BME280;38154;47.548;18.828;2023-02-18T14:17:51;98804.22;;;14.64;93.44
51239;BME280;38154;47.548;18.828;2023-02-18T14:20:43;98794.69;;;14.55;96.01
51239;BME280;38154;47.548;18.828;2023-02-18T14:31:02;98790.31;;;14.59;93.60
51239;BME280;38154;47.548;18.828;2023-02-18T14:33:30;98785.38;;;14.33;94.86
51239;BME280;38154;47.548;18.828;2023-02-18T14:41:46;98771.94;;;13.92;98.48
51239;BME280;38154;47.548;18.828;2023-02-18T14:49:47;98764.41;;;13.66;100.00
51239;BME280;38154;47.548;18.828;2023-02-18T14:52:22;98760.00;;;13.66;100.00
51239;BME280;38154;47.548;18.828;2023-02-18T14:54:52;98761.00;;;13.58;100.00
51239;BME280;38154;47.548;18.828;2023-02-18T14:57:19;98765.47;;;13.46;100.00
51239;BME280;38154;47.548;18.828;2023-02-18T14:59:56;98755.06;;;13.39;100.00
51239;BME280;38154;47.548;18.828;2023-02-18T15:02:25;98754.25;;;13.33;100.00
51239;BME280;38154;47.548;18.828;2023-02-18T15:05:18;98745.53;;;13.28;100.00
51239;BME280;38154;47.548;18.828;2023-02-18T15:07:55;98748.19;;;13.25;100.00
51239;BME280;38154;47.548;18.828;2023-02-18T15:10:21;98747.38;;;13.17;100.00
51239;BME280;38154;47.548;18.828;2023-02-18T15:12:47;98737.03;;;13.06;100.00
51239;BME280;38154;47.548;18.828;2023-02-18T15:15:14;98733.59;;;13.01;100.00
51239;BME280;38154;47.548;18.828;2023-02-18T15:17:47;98733.63;;;12.95;100.00
51239;BME280;38154;47.548;18.828;2023-02-18T15:20:14;98728.47;;;12.89;100.00